Minerva Alexandra — SYUZ — position and weather

sailwx.info

Track history (hours):
 
Tides and Currents Weather Stations Pressure Air Temp Water Temp Dewpoint Dewpoint Depression Visibility Wind Speed Wind Dir Waves Ship Positions

Minerva Alexandra

Last reported at 2018-Jan-05 23:30 UTC. Time now 2018-Jan-20 13:12 UTC.
Position N 37°52' W 034°41'.
Warning: this ship's position is 14 days out of date.

Length 244 m; draft 15 m.

Type: Ship (hazmat cat A). MMSI: 237677000.

Date/timePositionNaut miles runAvg speedWind from/ knotsBaromVisibWave heightAir tempDewpointWater temp
2018-Jan-05 23:30N 37°52' W 034°41'711.7
2018-Jan-05 22:54N 37°54' W 034°32'20310.5
2018-Jan-05 03:30N 39°01' W 030°28'510.2
2018-Jan-05 03:00N 39°03' W 030°22'510.2
2018-Jan-05 02:30N 39°05' W 030°16'510.1
2018-Jan-05 02:00N 39°07' W 030°10'510.0
2018-Jan-05 01:30N 39°09' W 030°04'510.0
2018-Jan-05 01:00N 39°11' W 029°58'5 9.9
2018-Jan-05 00:31N 39°13' W 029°52'510.1
2018-Jan-05 00:00N 39°15' W 029°46'510.4
2018-Jan-04 23:30N 39°17' W 029°40'510.5
2018-Jan-04 23:01N 39°19' W 029°34'510.3
2018-Jan-04 22:30N 39°21' W 029°28'510.0
2018-Jan-04 22:00N 39°23' W 029°22'5 9.9
2018-Jan-04 21:30N 39°25' W 029°16'510.2
2018-Jan-04 21:00N 39°27' W 029°10'5 9.7
2018-Jan-04 20:31N 39°29' W 029°04'5 9.9
2018-Jan-04 20:00N 39°31' W 028°58'510.1
2018-Jan-04 19:30N 39°34' W 028°52'510.0
2018-Jan-04 19:01N 39°36' W 028°47'5 9.9
2018-Jan-04 18:30N 39°38' W 028°41'5 9.9
2018-Jan-04 18:00N 39°40' W 028°35'5 9.7
2018-Jan-04 17:30N 39°42' W 028°29'5 9.5
2018-Jan-04 17:00N 39°44' W 028°24'510.0
2018-Jan-04 16:31N 39°46' W 028°18'510.1
2018-Jan-04 16:00N 39°49' W 028°12'5 9.8
2018-Jan-04 15:30N 39°51' W 028°06'810.0
2018-Jan-04 14:41N 39°55' W 027°57'410.0
2018-Jan-04 14:19N 39°57' W 027°53'  
Track history (hours):
 
Tides and Currents Weather Stations Pressure Air Temp Water Temp Dewpoint Dewpoint Depression Visibility Wind Speed Wind Dir Waves Ship Positions

Minerva Alexandra

Last reported at 2018-Jan-05 23:30 UTC. Time now 2018-Jan-20 13:12 UTC.
Position N 37°52' W 034°41'.
Warning: this ship's position is 14 days out of date.

Length 244 m; draft 15 m.

Type: Ship (hazmat cat A). MMSI: 237677000.

Date/timePositionNaut miles runAvg speedWind from/ knotsBaromVisibWave heightAir tempDewpointWater temp
2018-Jan-05 23:30N 37°52' W 034°41'711.7
2018-Jan-05 22:54N 37°54' W 034°32'20310.5
2018-Jan-05 03:30N 39°01' W 030°28'510.2
2018-Jan-05 03:00N 39°03' W 030°22'510.2
2018-Jan-05 02:30N 39°05' W 030°16'510.1
2018-Jan-05 02:00N 39°07' W 030°10'510.0
2018-Jan-05 01:30N 39°09' W 030°04'510.0
2018-Jan-05 01:00N 39°11' W 029°58'5 9.9
2018-Jan-05 00:31N 39°13' W 029°52'510.1
2018-Jan-05 00:00N 39°15' W 029°46'510.4
2018-Jan-04 23:30N 39°17' W 029°40'510.5
2018-Jan-04 23:01N 39°19' W 029°34'510.3
2018-Jan-04 22:30N 39°21' W 029°28'510.0
2018-Jan-04 22:00N 39°23' W 029°22'5 9.9
2018-Jan-04 21:30N 39°25' W 029°16'510.2
2018-Jan-04 21:00N 39°27' W 029°10'5 9.7
2018-Jan-04 20:31N 39°29' W 029°04'5 9.9
2018-Jan-04 20:00N 39°31' W 028°58'510.1
2018-Jan-04 19:30N 39°34' W 028°52'510.0
2018-Jan-04 19:01N 39°36' W 028°47'5 9.9
2018-Jan-04 18:30N 39°38' W 028°41'5 9.9
2018-Jan-04 18:00N 39°40' W 028°35'5 9.7
2018-Jan-04 17:30N 39°42' W 028°29'5 9.5
2018-Jan-04 17:00N 39°44' W 028°24'510.0
2018-Jan-04 16:31N 39°46' W 028°18'510.1
2018-Jan-04 16:00N 39°49' W 028°12'5 9.8
2018-Jan-04 15:30N 39°51' W 028°06'810.0
2018-Jan-04 14:41N 39°55' W 027°57'410.0
2018-Jan-04 14:19N 39°57' W 027°53'  

Dump ship's entire track history